Time;durP1;ratioP1;P1;durP2;ratioP2;P2;SDS_P1;SDS_P2;PMS_P1;PMS_P2;Temp;Humidity;BMP_temperature;BMP_pressure;BME280_temperature;BME280_humidity;BME280_pressure;Samples;Min_cycle;Max_cycle;Signal;HPM_P1;HPM_P2
2023/08/24 00:01:48;;;;;;;4.77;1.57;;;;;;;17.04;100.00;101362.31;5060746;28;20445;-68
2023/08/24 00:04:14;;;;;;;3.83;1.67;;;;;;;17.02;100.00;101354.44;5060471;28;20477;-68
2023/08/24 00:06:41;;;;;;;3.93;1.50;;;;;;;17.09;100.00;101360.22;5060133;28;20502;-68
2023/08/24 00:09:08;;;;;;;3.33;1.30;;;;;;;17.03;100.00;101357.97;5059883;28;20555;-68
2023/08/24 00:11:37;;;;;;;3.20;1.47;;;;;;;17.07;100.00;101353.47;5059749;28;20448;-68
2023/08/24 00:14:03;;;;;;;3.37;1.43;;;;;;;16.97;100.00;101351.88;5060549;28;20956;-68
2023/08/24 00:16:30;;;;;;;3.50;1.53;;;;;;;16.95;100.00;101350.59;5059894;28;20478;-68
2023/08/24 00:18:57;;;;;;;3.60;1.87;;;;;;;16.95;99.81;101345.91;5060485;28;20985;-68
2023/08/24 00:21:23;;;;;;;2.83;1.10;;;;;;;16.96;100.00;101341.28;5059542;28;20494;-68
2023/08/24 00:23:50;;;;;;;3.23;1.40;;;;;;;16.98;99.53;101342.53;5060560;28;20442;-68
2023/08/24 00:26:17;;;;;;;2.90;1.40;;;;;;;17.00;99.49;101342.19;5059862;28;21016;-68
2023/08/24 00:28:45;;;;;;;2.47;1.00;;;;;;;16.96;100.00;101342.06;5060716;28;20482;-68
2023/08/24 00:31:12;;;;;;;3.07;1.33;;;;;;;16.92;100.00;101343.84;5060144;28;20866;-68
2023/08/24 00:33:39;;;;;;;3.33;1.10;;;;;;;16.93;100.00;101347.38;5058754;28;20438;-69
2023/08/24 00:36:07;;;;;;;3.43;1.40;;;;;;;16.86;100.00;101343.19;5059402;28;20455;-72
2023/08/24 00:38:33;;;;;;;3.57;1.80;;;;;;;16.81;100.00;101337.09;5057317;28;21009;-70
2023/08/24 00:41:00;;;;;;;2.70;1.20;;;;;;;16.78;100.00;101337.75;5055517;28;20971;-67
2023/08/24 00:43:27;;;;;;;2.87;1.57;;;;;;;16.84;100.00;101339.19;5058488;28;20521;-68
2023/08/24 00:45:58;;;;;;;4.40;1.30;;;;;;;16.81;100.00;101337.09;5057752;28;20541;-68
2023/08/24 00:48:28;;;;;;;4.00;1.90;;;;;;;16.79;100.00;101337.44;5056772;28;20561;-68
2023/08/24 00:50:55;;;;;;;2.53;1.30;;;;;;;16.71;100.00;101332.72;5058452;28;20868;-68
2023/08/24 00:53:24;;;;;;;3.10;1.80;;;;;;;16.69;100.00;101324.06;5058010;28;20453;-68
2023/08/24 00:55:51;;;;;;;2.37;0.90;;;;;;;16.80;100.00;101322.63;5062203;28;20470;-68
2023/08/24 00:58:18;;;;;;;3.43;1.10;;;;;;;16.78;100.00;101324.09;5062346;28;20458;-68
2023/08/24 01:00:45;;;;;;;2.80;1.20;;;;;;;16.70;100.00;101328.41;5062862;28;20442;-68
2023/08/24 01:03:13;;;;;;;2.20;0.83;;;;;;;16.74;100.00;101321.19;5062357;28;20476;-68
2023/08/24 01:05:40;;;;;;;3.30;1.53;;;;;;;16.81;100.00;101323.41;5062472;28;20549;-68
2023/08/24 01:08:06;;;;;;;4.23;1.23;;;;;;;16.87;100.00;101316.66;5062567;28;20559;-68
2023/08/24 01:10:42;;;;;;;3.10;1.33;;;;;;;16.86;98.95;101324.03;5062709;28;20810;-68
2023/08/24 01:13:10;;;;;;;2.60;0.97;;;;;;;16.77;98.54;101326.00;5063477;28;20426;-69
2023/08/24 01:15:44;;;;;;;2.90;1.10;;;;;;;16.79;98.80;101322.94;5063333;28;20478;-68
2023/08/24 01:18:16;;;;;;;3.17;1.40;;;;;;;16.78;99.29;101329.56;5063655;28;20447;-68
2023/08/24 01:20:45;;;;;;;3.33;1.20;;;;;;;16.81;100.00;101324.22;5063248;28;20486;-68
2023/08/24 01:23:28;;;;;;;2.70;1.00;;;;;;;16.79;100.00;101326.47;5063302;28;20454;-68
2023/08/24 01:26:06;;;;;;;2.80;1.00;;;;;;;16.85;100.00;101325.16;5062693;28;20840;-68
2023/08/24 01:28:33;;;;;;;2.70;1.40;;;;;;;16.88;100.00;101324.53;5063107;28;20515;-68
2023/08/24 01:31:01;;;;;;;2.80;1.20;;;;;;;16.94;100.00;101321.63;5062874;28;20442;-68
2023/08/24 01:33:27;;;;;;;2.60;1.03;;;;;;;16.94;100.00;101327.09;5062989;28;20442;-68
2023/08/24 01:35:54;;;;;;;3.07;1.17;;;;;;;16.95;100.00;101323.22;5063361;28;20540;-68
2023/08/24 01:38:21;;;;;;;3.70;1.53;;;;;;;17.01;100.00;101328.22;5062630;28;20473;-68
2023/08/24 01:40:57;;;;;;;2.50;0.90;;;;;;;17.01;100.00;101324.66;5062575;28;20930;-68
2023/08/24 01:43:30;;;;;;;3.00;1.20;;;;;;;16.99;100.00;101333.19;5062256;28;20801;-68
2023/08/24 01:45:58;;;;;;;2.80;1.10;;;;;;;17.01;100.00;101332.88;5062867;28;20500;-68
2023/08/24 01:48:26;;;;;;;2.70;0.93;;;;;;;17.03;100.00;101330.59;5062710;28;20513;-68
2023/08/24 01:50:53;;;;;;;2.77;0.90;;;;;;;17.07;100.00;101326.09;5062581;28;20994;-68
2023/08/24 01:53:20;;;;;;;2.97;1.17;;;;;;;17.01;100.00;101328.22;5062375;28;20537;-68
2023/08/24 01:55:47;;;;;;;2.40;1.00;;;;;;;17.04;100.00;101316.59;5060278;28;20490;-69
2023/08/24 01:58:14;;;;;;;3.80;1.37;;;;;;;17.10;100.00;101325.44;5061508;28;20997;-68
2023/08/24 02:00:42;;;;;;;3.40;1.70;;;;;;;17.09;100.00;101326.59;5059599;28;20469;-68
2023/08/24 02:03:09;;;;;;;3.67;1.30;;;;;;;17.14;100.00;101307.22;5057874;28;20450;-68
2023/08/24 02:05:35;;;;;;;2.40;0.90;;;;;;;17.23;100.00;101310.75;5057354;28;20541;-68
2023/08/24 02:08:02;;;;;;;2.70;1.10;;;;;;;17.28;100.00;101320.72;5058247;28;20446;-68
2023/08/24 02:10:29;;;;;;;2.40;1.00;;;;;;;17.25;100.00;101316.69;5060373;28;20455;-68
2023/08/24 02:12:55;;;;;;;2.63;1.10;;;;;;;17.28;100.00;101316.03;5059268;28;20525;-68
2023/08/24 02:15:22;;;;;;;2.50;1.17;;;;;;;17.31;100.00;101309.91;5087089;22;20580;-69
2023/08/24 02:17:50;;;;;;;2.90;1.20;;;;;;;17.33;100.00;101317.78;5096060;28;21004;-69
2023/08/24 02:20:17;;;;;;;2.50;1.00;;;;;;;17.35;100.00;101308.13;5096401;28;20562;-69
2023/08/24 02:22:43;;;;;;;2.83;1.03;;;;;;;17.42;100.00;101309.53;5096571;28;20472;-69
2023/08/24 02:25:10;;;;;;;2.77;1.20;;;;;;;17.42;100.00;101307.59;5096129;28;20462;-69
2023/08/24 02:27:37;;;;;;;3.20;1.63;;;;;;;17.49;100.00;101318.06;5096427;28;20519;-69
2023/08/24 02:30:05;;;;;;;2.70;1.20;;;;;;;17.51;100.00;101310.28;5096039;28;20515;-69
2023/08/24 02:32:31;;;;;;;3.10;1.27;;;;;;;17.50;100.00;101308.69;5095650;28;20437;-69
2023/08/24 02:35:00;;;;;;;2.70;0.97;;;;;;;17.52;100.00;101311.88;5095879;28;20472;-69
2023/08/24 02:37:27;;;;;;;2.47;0.80;;;;;;;17.57;100.00;101308.97;5095839;28;20436;-69
2023/08/24 02:39:53;;;;;;;2.40;0.80;;;;;;;17.60;100.00;101311.06;5095878;28;20808;-69
2023/08/24 02:42:20;;;;;;;3.13;1.40;;;;;;;17.68;100.00;101301.97;5095454;28;20989;-69
2023/08/24 02:44:47;;;;;;;3.30;1.40;;;;;;;17.70;100.00;101304.38;5096391;28;20440;-69
2023/08/24 02:47:14;;;;;;;2.90;1.20;;;;;;;17.73;100.00;101301.00;5095936;28;20794;-69
2023/08/24 02:49:41;;;;;;;3.83;1.10;;;;;;;17.71;100.00;101306.81;5095931;28;20484;-69
2023/08/24 02:52:09;;;;;;;4.47;1.53;;;;;;;17.76;100.00;101309.38;5095634;28;20459;-69
2023/08/24 02:54:35;;;;;;;2.20;0.80;;;;;;;17.76;100.00;101306.66;5095555;28;20446;-69
2023/08/24 02:57:02;;;;;;;2.50;1.20;;;;;;;17.77;100.00;101304.69;5095058;28;21035;-69
2023/08/24 02:59:29;;;;;;;2.87;1.17;;;;;;;17.81;100.00;101305.66;5095814;28;20598;-69
2023/08/24 03:01:55;;;;;;;2.70;1.10;;;;;;;17.85;100.00;101303.84;5095204;28;20441;-69
2023/08/24 03:04:23;;;;;;;2.70;1.10;;;;;;;17.87;100.00;101304.31;5095317;28;20436;-69
2023/08/24 03:06:49;;;;;;;2.57;0.90;;;;;;;17.91;100.00;101305.25;5095179;28;20452;-69
2023/08/24 03:09:17;;;;;;;3.73;1.20;;;;;;;17.88;100.00;101314.13;5095165;28;20476;-69
2023/08/24 03:11:44;;;;;;;2.93;0.93;;;;;;;17.88;100.00;101312.22;5094864;28;20447;-69
2023/08/24 03:14:10;;;;;;;2.83;1.30;;;;;;;17.95;100.00;101310.88;5095109;28;20436;-69
2023/08/24 03:16:39;;;;;;;2.53;1.03;;;;;;;17.97;100.00;101305.84;5094052;28;20555;-69
2023/08/24 03:19:06;;;;;;;2.77;1.13;;;;;;;18.02;100.00;101314.69;5095056;28;20441;-69
2023/08/24 03:21:32;;;;;;;2.67;1.30;;;;;;;18.05;100.00;101315.97;5095018;28;20451;-69
2023/08/24 03:23:59;;;;;;;4.17;1.53;;;;;;;17.98;100.00;101304.72;5095249;28;20676;-69
2023/08/24 03:26:27;;;;;;;2.73;1.10;;;;;;;17.98;100.00;101307.47;5094562;28;20996;-69
2023/08/24 03:28:53;;;;;;;2.43;0.93;;;;;;;18.00;100.00;101307.94;5094554;28;20571;-69
2023/08/24 03:31:20;;;;;;;3.13;1.17;;;;;;;17.98;100.00;101308.28;5094712;28;20436;-69
2023/08/24 03:33:47;;;;;;;4.67;1.40;;;;;;;18.00;100.00;101294.22;5094699;28;20879;-69
2023/08/24 03:36:13;;;;;;;2.30;0.90;;;;;;;17.99;100.00;101300.84;5094625;28;20891;-69
2023/08/24 03:38:40;;;;;;;3.47;1.40;;;;;;;18.00;100.00;101299.72;5094318;28;20535;-69
2023/08/24 03:41:06;;;;;;;2.77;0.93;;;;;;;18.00;100.00;101291.47;5094594;28;20441;-69
2023/08/24 03:43:36;;;;;;;3.03;1.53;;;;;;;17.99;100.00;101285.19;5094559;28;20440;-69
2023/08/24 03:46:04;;;;;;;2.60;0.87;;;;;;;18.01;100.00;101287.59;5094112;28;20843;-69
2023/08/24 03:48:30;;;;;;;2.37;0.83;;;;;;;18.04;100.00;101286.94;5094391;28;21011;-69
2023/08/24 03:50:58;;;;;;;2.60;1.17;;;;;;;18.02;100.00;101278.25;5094679;28;20519;-69
2023/08/24 03:53:25;;;;;;;3.40;1.30;;;;;;;18.01;100.00;101277.44;5094591;28;20428;-69
2023/08/24 03:55:53;;;;;;;3.00;1.37;;;;;;;18.01;100.00;101277.44;5094331;28;20971;-69
2023/08/24 03:58:19;;;;;;;3.23;1.47;;;;;;;18.00;100.00;101281.31;5094265;28;20798;-69
2023/08/24 04:00:48;;;;;;;2.60;1.10;;;;;;;18.04;100.00;101284.19;5094605;28;20494;-69
2023/08/24 04:03:14;;;;;;;2.80;0.97;;;;;;;18.04;100.00;101281.47;5094207;28;20468;-69
2023/08/24 04:05:41;;;;;;;2.80;1.20;;;;;;;18.05;100.00;101281.13;5094144;28;20543;-69
2023/08/24 04:08:08;;;;;;;3.57;1.20;;;;;;;18.08;100.00;101283.19;5094145;28;20433;-69
2023/08/24 04:10:34;;;;;;;3.63;1.67;;;;;;;18.07;100.00;101289.03;5094407;28;20480;-69
2023/08/24 04:13:01;;;;;;;3.13;1.27;;;;;;;18.11;100.00;101281.75;5094580;28;20470;-69
2023/08/24 04:15:27;;;;;;;2.53;1.10;;;;;;;18.14;100.00;101290.06;5094169;28;20937;-69
2023/08/24 04:17:56;;;;;;;3.23;1.53;;;;;;;18.13;100.00;101287.66;5094013;28;20440;-69
2023/08/24 04:20:23;;;;;;;2.57;1.00;;;;;;;18.16;100.00;101287.00;5094140;28;20433;-69
2023/08/24 04:22:50;;;;;;;2.40;1.03;;;;;;;18.17;100.00;101285.88;5093839;28;20531;-69
2023/08/24 04:25:16;;;;;;;3.33;1.40;;;;;;;18.17;100.00;101291.34;5093995;28;20471;-69
2023/08/24 04:27:43;;;;;;;2.17;0.80;;;;;;;18.21;100.00;101280.53;5093748;28;20520;-69
2023/08/24 04:30:11;;;;;;;2.20;0.70;;;;;;;18.22;100.00;101288.41;5093348;28;20562;-69
2023/08/24 04:32:38;;;;;;;3.50;1.13;;;;;;;18.21;100.00;101286.81;5093459;28;20444;-69
2023/08/24 04:35:08;;;;;;;2.87;1.13;;;;;;;18.23;100.00;101280.97;5093735;28;20471;-69
2023/08/24 04:37:34;;;;;;;2.60;1.23;;;;;;;18.23;100.00;101284.50;5093702;28;20435;-69
2023/08/24 04:40:01;;;;;;;2.40;0.90;;;;;;;18.21;100.00;101281.31;5093730;28;20519;-69
2023/08/24 04:42:27;;;;;;;5.00;1.57;;;;;;;18.24;100.00;101285.31;5093741;28;20446;-69
2023/08/24 04:44:54;;;;;;;2.50;0.80;;;;;;;18.25;100.00;101273.22;5093599;28;20530;-69
2023/08/24 04:47:21;;;;;;;3.53;1.30;;;;;;;18.26;100.00;101283.84;5093884;28;20454;-69
2023/08/24 04:49:47;;;;;;;3.63;1.77;;;;;;;18.27;100.00;101282.72;5093600;28;20596;-69
2023/08/24 04:52:15;;;;;;;2.53;1.10;;;;;;;18.26;100.00;101286.59;5093590;28;20497;-69
2023/08/24 04:54:42;;;;;;;2.50;1.10;;;;;;;18.29;100.00;101294.16;5094140;28;20432;-69
2023/08/24 04:57:09;;;;;;;3.60;1.53;;;;;;;18.30;100.00;101289.47;5093523;28;20449;-69
2023/08/24 04:59:36;;;;;;;3.40;1.67;;;;;;;18.33;100.00;101300.59;5093516;28;20432;-69
2023/08/24 05:02:03;;;;;;;3.03;1.40;;;;;;;18.40;100.00;101297.28;5093524;28;20841;-69
2023/08/24 05:04:29;;;;;;;2.73;1.27;;;;;;;18.46;100.00;101306.09;5093171;28;20882;-69
2023/08/24 05:06:56;;;;;;;3.70;1.43;;;;;;;18.49;100.00;101303.50;5093536;28;20463;-69
2023/08/24 05:09:24;;;;;;;2.53;0.87;;;;;;;18.55;100.00;101295.84;5093036;28;20479;-69
2023/08/24 05:11:51;;;;;;;2.70;1.20;;;;;;;18.61;100.00;101297.25;5093801;28;20531;-69
2023/08/24 05:14:17;;;;;;;5.00;1.23;;;;;;;18.64;100.00;101299.34;5093453;28;20448;-69
2023/08/24 05:16:44;;;;;;;2.77;1.30;;;;;;;18.72;100.00;101309.44;5092927;28;20539;-69
2023/08/24 05:19:10;;;;;;;5.33;1.47;;;;;;;18.78;100.00;101299.84;5093313;28;20849;-69
2023/08/24 05:21:37;;;;;;;3.13;1.40;;;;;;;18.84;100.00;101300.44;5093689;28;20450;-69
2023/08/24 05:24:04;;;;;;;3.17;1.20;;;;;;;18.86;100.00;101298.97;5093286;28;20443;-69
2023/08/24 05:26:32;;;;;;;2.50;1.27;;;;;;;18.93;100.00;101312.13;5093203;28;20452;-70
2023/08/24 05:28:59;;;;;;;3.47;1.50;;;;;;;18.99;100.00;101304.47;5093341;28;20440;-71
2023/08/24 05:31:25;;;;;;;2.90;1.40;;;;;;;19.07;100.00;101306.31;5093672;28;20432;-71
2023/08/24 05:33:52;;;;;;;4.17;2.20;;;;;;;19.12;100.00;101309.66;5094198;28;20579;-70
2023/08/24 05:36:19;;;;;;;17.70;2.70;;;;;;;19.20;100.00;101307.13;5093199;28;20972;-69
2023/08/24 05:38:46;;;;;;;3.80;2.10;;;;;;;19.24;100.00;101313.56;5093563;28;20497;-69
2023/08/24 05:41:13;;;;;;;4.93;2.10;;;;;;;19.27;100.00;101310.94;5095760;28;20768;-69
2023/08/24 05:43:41;;;;;;;5.00;2.80;;;;;;;19.27;100.00;101305.44;5097347;28;20444;-69
2023/08/24 05:46:08;;;;;;;2.87;1.60;;;;;;;19.31;100.00;101308.31;5096808;28;20482;-70
2023/08/24 05:48:35;;;;;;;6.43;2.60;;;;;;;19.37;100.00;101310.47;5096560;28;20436;-70
2023/08/24 05:51:01;;;;;;;3.30;1.70;;;;;;;19.42;100.00;101310.25;5096744;28;20536;-69
2023/08/24 05:53:28;;;;;;;4.83;2.60;;;;;;;19.46;100.00;101323.31;5096774;28;20487;-70
2023/08/24 05:55:58;;;;;;;7.27;2.70;;;;;;;19.54;100.00;101317.69;5096728;28;20482;-69
2023/08/24 05:58:25;;;;;;;4.73;2.20;;;;;;;19.60;100.00;101315.50;5096709;28;20503;-69
2023/08/24 06:00:58;;;;;;;4.30;2.20;;;;;;;19.60;100.00;101312.75;5096382;28;20939;-69
2023/08/24 06:03:25;;;;;;;5.07;2.10;;;;;;;19.64;100.00;101308.22;5097023;28;20460;-70
2023/08/24 06:05:52;;;;;;;3.83;2.10;;;;;;;19.66;100.00;101311.44;5096438;28;20460;-70
2023/08/24 06:08:19;;;;;;;3.70;1.87;;;;;;;19.67;99.33;101313.03;5096476;28;20803;-70
2023/08/24 06:10:45;;;;;;;4.10;2.00;;;;;;;19.74;98.08;101312.44;5096755;28;20579;-69
2023/08/24 06:13:12;;;;;;;4.07;2.10;;;;;;;19.86;95.34;101320.66;5096346;28;20452;-70
2023/08/24 06:15:38;;;;;;;3.80;2.00;;;;;;;19.91;95.41;101317.69;5095987;28;20496;-73
2023/08/24 06:18:07;;;;;;;7.63;2.13;;;;;;;19.93;95.12;101314.59;5096115;28;20433;-70
2023/08/24 06:20:33;;;;;;;5.27;2.20;;;;;;;19.92;94.47;101319.28;5095858;28;20472;-68
2023/08/24 06:23:00;;;;;;;3.40;1.63;;;;;;;20.03;90.61;101320.41;5096172;28;20508;-69
2023/08/24 06:25:27;;;;;;;3.67;1.80;;;;;;;20.22;89.68;101313.47;5095792;28;20964;-69
2023/08/24 06:27:53;;;;;;;4.90;2.50;;;;;;;20.41;88.40;101314.47;5096452;28;20523;-68
2023/08/24 06:30:20;;;;;;;4.20;1.80;;;;;;;20.54;88.10;101308.91;5095950;28;20504;-69
2023/08/24 06:32:47;;;;;;;3.93;2.13;;;;;;;20.63;87.20;101304.88;5095964;28;20459;-69
2023/08/24 06:35:15;;;;;;;4.00;1.93;;;;;;;20.75;87.40;101305.94;5095698;28;21040;-68
2023/08/24 06:37:42;;;;;;;2.90;1.23;;;;;;;20.84;86.01;101309.34;5096265;28;20440;-68
2023/08/24 06:40:09;;;;;;;3.67;1.70;;;;;;;20.94;85.61;101311.59;5095895;28;20528;-68
2023/08/24 06:42:36;;;;;;;5.70;1.97;;;;;;;21.08;83.58;101313.91;5096164;28;20515;-69
2023/08/24 06:45:03;;;;;;;5.97;2.30;;;;;;;21.16;83.09;101322.00;5095725;28;20456;-69
2023/08/24 06:47:29;;;;;;;3.67;1.80;;;;;;;21.30;80.66;101320.78;5095784;28;20480;-69
2023/08/24 06:49:56;;;;;;;3.23;1.67;;;;;;;21.29;82.60;101330.97;5095942;28;20540;-70
2023/08/24 06:52:24;;;;;;;3.53;1.70;;;;;;;21.34;82.14;101329.97;5094712;28;20436;-70
2023/08/24 06:54:53;;;;;;;6.53;1.73;;;;;;;21.32;83.34;101329.50;5095189;28;20467;-71
2023/08/24 06:57:20;;;;;;;3.00;1.70;;;;;;;21.45;81.52;101330.22;5095259;28;20443;-72
2023/08/24 06:59:46;;;;;;;6.37;2.33;;;;;;;21.53;81.86;101323.72;5095577;28;20432;-72
2023/08/24 07:02:13;;;;;;;3.50;1.63;;;;;;;21.64;82.17;101330.28;5095869;28;20433;-72
2023/08/24 07:04:40;;;;;;;3.67;1.70;;;;;;;21.71;81.54;101332.41;5095109;28;20471;-71
2023/08/24 07:07:07;;;;;;;3.87;2.07;;;;;;;21.80;81.25;101328.28;5095309;28;20439;-72
2023/08/24 07:09:35;;;;;;;2.93;1.43;;;;;;;21.91;80.50;101334.03;5095215;28;20478;-72
2023/08/24 07:12:02;;;;;;;2.97;1.50;;;;;;;21.96;80.47;101330.19;5095562;28;20528;-71
2023/08/24 07:14:28;;;;;;;2.80;1.43;;;;;;;21.99;82.38;101327.53;5094987;28;20468;-71
2023/08/24 07:16:55;;;;;;;3.40;1.60;;;;;;;22.03;81.40;101330.38;5095046;28;20453;-71
2023/08/24 07:19:22;;;;;;;2.70;1.27;;;;;;;22.06;81.34;101329.66;5095144;28;20875;-71
2023/08/24 07:21:49;;;;;;;3.97;1.60;;;;;;;22.01;81.95;101327.97;5094958;28;20476;-71
2023/08/24 07:24:16;;;;;;;3.50;1.97;;;;;;;22.10;80.40;101330.53;5095088;28;20518;-71
2023/08/24 07:26:45;;;;;;;9.03;1.70;;;;;;;22.23;78.79;101328.47;5094981;28;20504;-71
2023/08/24 07:29:12;;;;;;;3.73;1.60;;;;;;;22.26;79.47;101325.78;5094566;28;21422;-71
2023/08/24 07:31:38;;;;;;;4.07;1.67;;;;;;;22.30;77.64;101328.59;5094715;28;20537;-71
2023/08/24 07:34:05;;;;;;;3.20;1.40;;;;;;;22.33;77.88;101317.66;5094804;28;20483;-71
2023/08/24 07:36:32;;;;;;;2.70;1.23;;;;;;;22.45;77.06;101318.66;5094411;28;21055;-71
2023/08/24 07:38:59;;;;;;;3.77;1.90;;;;;;;22.50;76.42;101326.66;5094758;28;20479;-71
2023/08/24 07:41:25;;;;;;;2.70;1.10;;;;;;;22.49;78.06;101325.88;5094409;28;20876;-70
2023/08/24 07:43:53;;;;;;;3.40;1.87;;;;;;;22.54;77.00;101317.28;5094460;28;20444;-71
2023/08/24 07:46:20;;;;;;;6.43;1.50;;;;;;;22.57;76.46;101318.50;5094558;28;20509;-71
2023/08/24 07:48:47;;;;;;;13.73;2.00;;;;;;;22.70;76.71;101316.38;5094319;28;20479;-72
2023/08/24 07:51:14;;;;;;;3.03;1.53;;;;;;;22.83;75.96;101326.09;5094513;28;21086;-72
2023/08/24 07:53:40;;;;;;;4.60;1.73;;;;;;;22.93;73.60;101325.53;5094528;28;20863;-72
2023/08/24 07:56:07;;;;;;;12.27;1.63;;;;;;;23.00;72.45;101319.34;5094608;28;20448;-72
2023/08/24 07:58:34;;;;;;;7.27;1.87;;;;;;;23.22;70.49;101323.28;5094429;28;20463;-74
2023/08/24 08:01:02;;;;;;;3.10;1.33;;;;;;;23.34;69.24;101321.13;5094102;28;20932;-73
2023/08/24 08:03:30;;;;;;;11.80;1.63;;;;;;;23.40;69.44;101329.88;5094179;28;20523;-73
2023/08/24 08:05:58;;;;;;;3.07;1.30;;;;;;;23.58;69.45;101332.94;5094295;28;20464;-72
2023/08/24 08:08:24;;;;;;;7.90;1.60;;;;;;;23.65;69.26;101333.09;5093915;28;20451;-71
2023/08/24 08:10:59;;;;;;;3.77;1.30;;;;;;;23.81;69.98;101327.38;5094460;28;20541;-71
2023/08/24 08:13:26;;;;;;;2.97;1.57;;;;;;;23.91;69.25;101319.25;5093978;28;20424;-72
2023/08/24 08:15:53;;;;;;;3.40;1.53;;;;;;;24.08;68.92;101314.31;5093605;28;20571;-73
2023/08/24 08:18:21;;;;;;;2.97;1.30;;;;;;;24.21;68.27;101312.88;5094446;28;20812;-71
2023/08/24 08:20:52;;;;;;;2.90;1.50;;;;;;;24.35;68.31;101315.84;5094332;28;20432;-71
2023/08/24 08:23:18;;;;;;;2.90;1.60;;;;;;;24.30;64.86;101312.59;5094352;28;20795;-76
2023/08/24 08:25:45;;;;;;;2.57;1.20;;;;;;;24.25;64.20;101310.16;5093587;28;21035;-70
2023/08/24 08:28:12;;;;;;;7.27;1.77;;;;;;;24.24;66.51;101303.84;5093620;28;20436;-73
2023/08/24 08:30:38;;;;;;;2.93;1.30;;;;;;;24.16;65.73;101299.38;5093945;28;20480;-71
2023/08/24 08:33:05;;;;;;;2.80;1.10;;;;;;;24.20;65.11;101294.69;5093511;28;20543;-71
2023/08/24 08:35:33;;;;;;;6.30;1.87;;;;;;;24.17;65.03;101293.50;5093719;28;20466;-74
2023/08/24 08:38:00;;;;;;;3.90;1.33;;;;;;;24.20;65.61;101294.69;5093981;28;20955;-71
2023/08/24 08:40:29;;;;;;;3.30;1.60;;;;;;;24.15;67.58;101289.50;5094053;28;20520;-72
2023/08/24 08:42:57;;;;;;;2.97;1.30;;;;;;;24.18;66.86;101288.75;5093697;28;20463;-74
2023/08/24 08:45:26;;;;;;;3.47;1.07;;;;;;;24.28;68.81;101285.31;5093590;28;20461;-75
2023/08/24 08:47:57;;;;;;;2.40;0.90;;;;;;;24.34;68.93;101278.25;5093626;28;20467;-75
2023/08/24 08:50:25;;;;;;;2.30;1.00;;;;;;;24.29;69.97;101281.34;5093597;28;20474;-74
2023/08/24 08:52:53;;;;;;;2.10;0.80;;;;;;;24.17;67.73;101290.72;5093307;28;20924;-74
2023/08/24 08:55:20;;;;;;;2.30;0.97;;;;;;;24.15;68.15;101287.53;5093917;28;20539;-74
2023/08/24 08:57:48;;;;;;;2.10;0.70;;;;;;;24.16;68.08;101288.31;5093277;28;20429;-75
2023/08/24 09:00:17;;;;;;;2.20;0.60;;;;;;;24.14;69.45;101291.47;5093770;28;20436;-75
2023/08/24 09:02:46;;;;;;;2.10;0.73;;;;;;;24.19;69.61;101290.34;5093507;28;20447;-74
2023/08/24 09:05:13;;;;;;;2.10;0.60;;;;;;;24.32;68.53;101279.81;5093365;28;20460;-73
2023/08/24 09:07:41;;;;;;;2.47;0.93;;;;;;;24.51;67.91;101278.84;5093922;28;20444;-74
2023/08/24 09:10:09;;;;;;;2.60;1.03;;;;;;;24.61;65.05;101281.75;5093412;28;20452;-74
2023/08/24 09:12:36;;;;;;;2.33;0.70;;;;;;;24.56;64.58;101278.50;5093748;28;20444;-74
2023/08/24 09:15:04;;;;;;;2.73;1.30;;;;;;;24.51;64.98;101265.00;5093947;28;20963;-74
2023/08/24 09:17:31;;;;;;;2.40;0.90;;;;;;;24.49;65.36;101259.06;5097491;28;20442;-74
2023/08/24 09:19:59;;;;;;;2.67;1.00;;;;;;;24.51;66.81;101265.00;5097408;28;20447;-73
2023/08/24 09:22:26;;;;;;;2.10;0.70;;;;;;;24.42;66.35;101257.78;5097459;28;20806;-74
2023/08/24 09:24:54;;;;;;;2.47;0.87;;;;;;;24.27;67.07;101250.47;5097609;28;20523;-74
2023/08/24 09:27:22;;;;;;;2.67;1.10;;;;;;;24.29;69.05;101253.66;5097033;28;20531;-73
2023/08/24 09:29:50;;;;;;;2.10;0.70;;;;;;;24.49;65.33;101253.53;5097203;28;20516;-73
2023/08/24 09:32:23;;;;;;;2.70;1.00;;;;;;;24.61;64.05;101248.50;5096775;28;20849;-73
2023/08/24 09:34:50;;;;;;;3.73;1.23;;;;;;;24.64;60.96;101247.72;5096828;28;20416;-73
2023/08/24 09:37:18;;;;;;;3.00;0.93;;;;;;;24.65;62.17;101251.28;5096763;28;20963;-73
2023/08/24 09:39:45;;;;;;;2.73;1.13;;;;;;;24.67;61.88;101246.19;5097051;28;20441;-73
2023/08/24 09:42:12;;;;;;;2.50;0.83;;;;;;;24.69;61.11;101249.34;5097029;28;20436;-72
2023/08/24 09:44:45;;;;;;;2.23;0.80;;;;;;;24.81;61.64;101234.44;5096959;28;20436;-73
2023/08/24 09:47:12;;;;;;;2.10;0.70;;;;;;;24.92;62.15;101240.84;5096577;28;20520;-73
2023/08/24 09:49:39;;;;;;;2.43;0.80;;;;;;;24.99;58.82;101235.38;5096729;28;20523;-73
2023/08/24 09:52:08;;;;;;;2.20;0.80;;;;;;;25.07;58.35;101231.47;5096925;28;20590;-73
2023/08/24 09:54:38;;;;;;;2.20;0.80;;;;;;;25.08;60.73;101230.31;5096966;28;20522;-73
2023/08/24 09:57:07;;;;;;;2.20;0.80;;;;;;;25.10;59.88;101232.69;5096527;28;20460;-73
2023/08/24 09:59:36;;;;;;;2.03;0.70;;;;;;;25.11;62.01;101229.56;5096674;28;20432;-72
2023/08/24 10:02:09;;;;;;;2.20;0.80;;;;;;;25.16;59.97;101225.63;5096455;28;20451;-73
2023/08/24 10:04:41;;;;;;;2.63;1.10;;;;;;;25.23;60.33;101225.66;5096585;28;20526;-73
2023/08/24 10:07:14;;;;;;;2.07;0.73;;;;;;;25.33;59.93;101222.19;5096215;28;20420;-72
2023/08/24 10:09:49;;;;;;;2.57;0.97;;;;;;;25.45;57.05;101212.72;5096198;28;20893;-73
2023/08/24 10:12:20;;;;;;;2.40;0.97;;;;;;;25.45;58.99;101201.63;5096408;28;20556;-72
2023/08/24 10:14:54;;;;;;;2.37;0.80;;;;;;;25.53;58.40;101216.34;5096100;28;20535;-73
2023/08/24 10:17:23;;;;;;;2.50;1.10;;;;;;;25.55;59.47;101219.56;5096454;28;20421;-72
2023/08/24 10:19:52;;;;;;;2.40;0.80;;;;;;;25.60;60.49;101213.63;5096204;28;20524;-72
2023/08/24 10:22:20;;;;;;;2.30;1.03;;;;;;;25.67;57.63;101219.19;5096248;28;20524;-73
2023/08/24 10:24:48;;;;;;;2.97;1.20;;;;;;;25.73;58.91;101214.88;5095759;28;20432;-72
2023/08/24 10:27:15;;;;;;;2.73;0.90;;;;;;;25.79;57.84;101218.91;5094530;28;20944;-72
2023/08/24 10:29:42;;;;;;;2.50;1.00;;;;;;;25.85;57.99;101213.75;5096324;28;20448;-72
2023/08/24 10:32:09;;;;;;;2.10;0.73;;;;;;;25.96;56.30;101209.06;5096264;28;20486;-72
2023/08/24 10:34:38;;;;;;;2.50;0.77;;;;;;;26.11;56.61;101221.78;5096010;28;20468;-73
2023/08/24 10:37:09;;;;;;;2.53;1.07;;;;;;;26.24;56.00;101218.66;5096144;28;20894;-72
2023/08/24 10:39:37;;;;;;;3.03;1.20;;;;;;;26.29;56.05;101221.03;5095873;28;20435;-72
2023/08/24 10:42:06;;;;;;;2.67;0.97;;;;;;;26.33;53.01;101219.84;5095998;28;20447;-72
2023/08/24 10:44:37;;;;;;;2.50;1.00;;;;;;;26.37;52.40;101220.66;5096587;28;20490;-72
2023/08/24 10:47:07;;;;;;;3.10;0.90;;;;;;;26.34;56.15;101218.69;5095798;28;20492;-73
2023/08/24 10:49:34;;;;;;;3.63;1.40;;;;;;;26.47;54.71;101210.00;5095728;28;20464;-73
2023/08/24 10:52:21;;;;;;;2.30;1.00;;;;;;;26.57;53.41;101214.78;5095991;28;20515;-73
2023/08/24 10:54:49;;;;;;;2.33;0.80;;;;;;;26.73;54.84;101211.59;5095978;28;20421;-73
2023/08/24 10:57:21;;;;;;;2.37;0.90;;;;;;;26.91;52.12;101206.84;5095247;28;20992;-72
2023/08/24 10:59:59;;;;;;;2.53;1.20;;;;;;;27.03;53.13;101203.66;5095902;28;20443;-73
2023/08/24 11:02:26;;;;;;;2.00;0.70;;;;;;;27.21;53.50;101202.88;5095238;28;20431;-72
2023/08/24 11:05:07;;;;;;;2.87;1.30;;;;;;;27.44;52.35;101210.78;5095530;28;20974;-73
2023/08/24 11:07:35;;;;;;;2.40;0.90;;;;;;;27.62;51.56;101200.38;5095707;28;20440;-72
2023/08/24 11:10:12;;;;;;;2.50;1.03;;;;;;;27.70;50.81;101195.56;5095363;28;20447;-73
2023/08/24 11:13:07;;;;;;;5.10;1.83;;;;;;;27.74;52.18;101183.25;5095537;28;20464;-72
2023/08/24 11:15:34;;;;;;;2.67;1.00;;;;;;;27.88;50.08;101168.47;5092000;28;20922;-74
2023/08/24 11:18:23;;;;;;;2.50;1.13;;;;;;;28.23;49.79;101173.03;5095066;28;21011;-72
2023/08/24 11:20:52;;;;;;;2.80;1.17;;;;;;;28.94;49.36;101170.91;5083836;28;20978;-73
2023/08/24 11:23:21;;;;;;;2.50;1.13;;;;;;;29.66;46.60;101174.56;5095362;28;20507;-73
2023/08/24 11:25:48;;;;;;;2.40;1.03;;;;;;;30.07;45.94;101165.25;5095001;28;20543;-73